createdAt,value
2023-07-28T00:00:06.791Z,997.42
2023-07-28T00:01:06.813Z,997.46
2023-07-28T00:02:06.868Z,997.43
2023-07-28T00:03:06.923Z,997.38
2023-07-28T00:04:06.929Z,997.35
2023-07-28T00:05:06.955Z,997.39
2023-07-28T00:06:06.909Z,997.34
2023-07-28T00:07:06.925Z,997.32
2023-07-28T00:08:06.983Z,997.28
2023-07-28T00:09:06.954Z,997.29
2023-07-28T00:10:07.003Z,997.26
2023-07-28T00:11:06.993Z,997.28
2023-07-28T00:12:07.015Z,997.25
2023-07-28T00:13:07.034Z,997.25
2023-07-28T00:14:07.048Z,997.22
2023-07-28T00:15:07.078Z,997.27
2023-07-28T00:16:07.111Z,997.22
2023-07-28T00:17:07.114Z,997.25
2023-07-28T00:18:07.125Z,997.21
2023-07-28T00:19:07.150Z,997.20
2023-07-28T00:20:07.162Z,997.20
2023-07-28T00:21:07.182Z,997.22
2023-07-28T00:22:07.200Z,997.24
2023-07-28T00:23:07.220Z,997.22
2023-07-28T00:24:07.238Z,997.18
2023-07-28T00:25:07.262Z,997.15
2023-07-28T00:26:07.276Z,997.14
2023-07-28T00:27:07.298Z,997.12
2023-07-28T00:28:07.401Z,997.00
2023-07-28T00:29:07.346Z,997.05
2023-07-28T00:30:07.362Z,997.07
2023-07-28T00:31:07.382Z,997.06
2023-07-28T00:32:07.413Z,997.09
2023-07-28T00:33:07.413Z,997.06
2023-07-28T00:34:07.439Z,997.06
2023-07-28T00:35:07.469Z,997.09
2023-07-28T00:36:07.481Z,997.03
2023-07-28T00:37:07.496Z,997.04
2023-07-28T00:38:07.504Z,997.07
2023-07-28T00:39:07.545Z,997.08
2023-07-28T00:40:07.563Z,997.04
2023-07-28T00:41:07.560Z,997.03
2023-07-28T00:42:07.598Z,997.04
2023-07-28T00:43:07.615Z,997.08
2023-07-28T00:44:07.624Z,997.07
2023-07-28T00:45:07.639Z,997.08
2023-07-28T00:46:07.710Z,997.12
2023-07-28T00:47:07.677Z,997.10
2023-07-28T00:48:07.716Z,997.07
2023-07-28T00:49:07.717Z,997.11
2023-07-28T00:50:07.731Z,997.08
2023-07-28T00:51:07.753Z,997.07
2023-07-28T00:52:07.770Z,997.05
2023-07-28T00:53:07.796Z,997.04
2023-07-28T00:54:07.825Z,997.08
2023-07-28T00:55:07.845Z,997.12
2023-07-28T00:56:07.848Z,997.08
2023-07-28T00:57:07.864Z,997.12
2023-07-28T00:58:07.884Z,997.08
2023-07-28T00:59:07.902Z,997.06
2023-07-28T01:00:07.945Z,997.02
2023-07-28T01:01:07.999Z,997.01
2023-07-28T01:02:07.959Z,996.99
2023-07-28T01:03:08.035Z,997.04
2023-07-28T01:04:08.007Z,997.03
2023-07-28T01:05:08.048Z,997.02
2023-07-28T01:06:08.038Z,997.03
2023-07-28T01:07:08.056Z,997.02
2023-07-28T01:08:08.078Z,997.05
2023-07-28T01:09:08.097Z,997.02
2023-07-28T01:10:08.127Z,997.00
2023-07-28T01:11:08.133Z,996.98
2023-07-28T01:12:08.166Z,996.96
2023-07-28T01:13:08.168Z,996.95
2023-07-28T01:14:08.190Z,996.92
2023-07-28T01:15:08.217Z,996.92
2023-07-28T01:16:08.268Z,996.87
2023-07-28T01:17:08.250Z,996.85
2023-07-28T01:18:08.271Z,996.87
2023-07-28T01:19:08.286Z,996.88
2023-07-28T01:20:08.314Z,996.89
2023-07-28T01:21:08.324Z,996.87
2023-07-28T01:22:08.342Z,996.86
2023-07-28T01:23:08.364Z,996.88
2023-07-28T01:24:08.387Z,996.87
2023-07-28T01:25:08.402Z,996.85
2023-07-28T01:26:08.422Z,996.85
2023-07-28T01:27:08.465Z,996.89
2023-07-28T01:28:08.482Z,996.83
2023-07-28T01:29:08.473Z,996.80
2023-07-28T01:30:08.500Z,996.82
2023-07-28T01:31:08.530Z,996.81
2023-07-28T01:32:08.539Z,996.80
2023-07-28T01:33:08.594Z,996.82
2023-07-28T01:34:08.573Z,996.80
2023-07-28T01:35:08.593Z,996.76
2023-07-28T01:36:08.613Z,996.79
2023-07-28T01:37:08.633Z,996.81
2023-07-28T01:38:08.650Z,996.80
2023-07-28T01:39:08.671Z,996.83
2023-07-28T01:40:08.690Z,996.80
2023-07-28T01:41:08.709Z,996.85
2023-07-28T01:42:08.728Z,996.80
2023-07-28T01:43:08.750Z,996.79
2023-07-28T01:44:08.770Z,996.80
2023-07-28T01:45:08.795Z,996.82
2023-07-28T01:46:08.806Z,996.85
2023-07-28T01:47:08.825Z,996.82
2023-07-28T01:48:08.850Z,996.80
2023-07-28T01:49:09.363Z,996.80
2023-07-28T01:50:08.884Z,996.82
2023-07-28T01:51:08.902Z,996.81
2023-07-28T01:52:08.925Z,996.85
2023-07-28T01:53:08.942Z,996.85
2023-07-28T01:54:08.967Z,996.84
2023-07-28T01:55:08.979Z,996.83
2023-07-28T01:56:09.002Z,996.80
2023-07-28T01:57:09.014Z,996.84
2023-07-28T01:58:09.035Z,996.84
2023-07-28T01:59:09.057Z,996.84
2023-07-28T02:00:09.071Z,996.79
2023-07-28T02:01:09.146Z,996.84
2023-07-28T02:02:09.114Z,996.86
2023-07-28T02:03:09.192Z,996.83
2023-07-28T02:04:09.191Z,996.79
2023-07-28T02:05:09.169Z,996.80
2023-07-28T02:06:09.207Z,996.79
2023-07-28T02:07:09.209Z,996.83
2023-07-28T02:08:09.234Z,996.88
2023-07-28T02:09:09.245Z,996.88
2023-07-28T02:10:09.269Z,996.81
2023-07-28T02:11:09.302Z,996.83
2023-07-28T02:12:09.306Z,996.83
2023-07-28T02:13:09.327Z,996.87
2023-07-28T02:14:09.342Z,996.84
2023-07-28T02:15:09.367Z,996.82
2023-07-28T02:16:09.380Z,996.82
2023-07-28T02:17:09.405Z,996.80
2023-07-28T02:18:09.452Z,996.91
2023-07-28T02:19:09.437Z,996.89
2023-07-28T02:20:09.475Z,996.85
2023-07-28T02:21:09.508Z,996.85
2023-07-28T02:22:09.496Z,996.82
2023-07-28T02:23:09.515Z,996.78
2023-07-28T02:24:09.534Z,996.83
2023-07-28T02:25:09.557Z,996.85
2023-07-28T02:26:09.575Z,996.79
2023-07-28T02:27:09.595Z,996.82
2023-07-28T02:28:09.706Z,996.85
2023-07-28T02:29:09.637Z,996.80
2023-07-28T02:30:09.683Z,996.80
2023-07-28T02:31:09.718Z,996.75
2023-07-28T02:32:09.688Z,996.74
2023-07-28T02:33:09.760Z,996.71
2023-07-28T02:34:09.729Z,996.75
2023-07-28T02:35:09.759Z,996.76
2023-07-28T02:36:09.769Z,996.79
2023-07-28T02:37:09.784Z,996.78
2023-07-28T02:38:09.833Z,996.73
2023-07-28T02:39:09.822Z,996.77
2023-07-28T02:40:09.844Z,996.70
2023-07-28T02:41:09.860Z,996.68
2023-07-28T02:42:09.884Z,996.66
2023-07-28T02:43:09.899Z,996.65
2023-07-28T02:44:09.927Z,996.64
2023-07-28T02:45:09.937Z,996.68
2023-07-28T02:46:09.996Z,996.62
2023-07-28T02:47:09.990Z,996.64
2023-07-28T02:48:10.014Z,996.63
2023-07-28T02:49:10.022Z,996.58
2023-07-28T02:50:10.033Z,996.56
2023-07-28T02:51:10.053Z,996.55
2023-07-28T02:52:10.079Z,996.56
2023-07-28T02:53:10.094Z,996.64
2023-07-28T02:54:10.112Z,996.60
2023-07-28T02:55:10.133Z,996.61
2023-07-28T02:56:10.152Z,996.60
2023-07-28T02:57:10.169Z,996.56
2023-07-28T02:58:10.193Z,996.57
2023-07-28T02:59:10.210Z,996.56
2023-07-28T03:00:10.230Z,996.60
2023-07-28T03:01:10.248Z,996.63
2023-07-28T03:02:10.269Z,996.60
2023-07-28T03:03:10.311Z,996.60
2023-07-28T03:04:10.315Z,996.61
2023-07-28T03:05:10.329Z,996.64
2023-07-28T03:06:10.342Z,996.67
2023-07-28T03:07:10.380Z,996.63
2023-07-28T03:08:10.382Z,996.63
2023-07-28T03:09:10.402Z,996.69
2023-07-28T03:10:10.426Z,996.66
2023-07-28T03:11:10.442Z,996.65
2023-07-28T03:12:10.458Z,996.72
2023-07-28T03:13:10.478Z,996.71
2023-07-28T03:14:10.503Z,996.74
2023-07-28T03:15:10.529Z,996.78
2023-07-28T03:16:10.544Z,996.79
2023-07-28T03:17:10.557Z,996.71
2023-07-28T03:18:10.577Z,996.75
2023-07-28T03:19:10.600Z,996.78
2023-07-28T03:20:10.615Z,996.76
2023-07-28T03:21:10.638Z,996.84
2023-07-28T03:22:10.652Z,996.90
2023-07-28T03:23:10.673Z,996.88
2023-07-28T03:24:10.694Z,996.87
2023-07-28T03:25:10.713Z,996.88
2023-07-28T03:26:10.732Z,996.84
2023-07-28T03:27:10.753Z,996.84
2023-07-28T03:28:10.826Z,996.88
2023-07-28T03:29:10.794Z,996.87
2023-07-28T03:30:10.848Z,996.85
2023-07-28T03:31:10.833Z,996.87
2023-07-28T03:32:10.885Z,996.85
2023-07-28T03:33:10.870Z,996.90
2023-07-28T03:34:10.890Z,996.93
2023-07-28T03:35:10.908Z,996.93
2023-07-28T03:36:10.925Z,996.93
2023-07-28T03:37:10.945Z,996.94
2023-07-28T03:38:10.977Z,996.95
2023-07-28T03:39:10.986Z,996.97
2023-07-28T03:40:11.005Z,997.02
2023-07-28T03:41:11.031Z,997.01
2023-07-28T03:42:11.040Z,996.99
2023-07-28T03:43:11.067Z,997.00
2023-07-28T03:44:11.080Z,997.00
2023-07-28T03:45:11.104Z,997.01
2023-07-28T03:46:11.158Z,996.99
2023-07-28T03:47:11.147Z,997.02
2023-07-28T03:48:11.162Z,996.99
2023-07-28T03:49:11.184Z,996.99
2023-07-28T03:50:11.208Z,997.00
2023-07-28T03:51:11.219Z,996.99
2023-07-28T03:52:11.237Z,997.03
2023-07-28T03:53:11.256Z,997.03
2023-07-28T03:54:11.279Z,997.07
2023-07-28T03:55:11.298Z,997.08
2023-07-28T03:56:11.311Z,997.06
2023-07-28T03:57:11.345Z,997.04
2023-07-28T03:58:11.373Z,997.08
2023-07-28T03:59:11.400Z,997.07
2023-07-28T04:00:11.398Z,997.05
2023-07-28T04:01:11.542Z,997.10
2023-07-28T04:02:11.436Z,997.08
2023-07-28T04:03:11.451Z,997.07
2023-07-28T04:04:11.477Z,997.08
2023-07-28T04:05:11.495Z,997.07
2023-07-28T04:06:11.509Z,997.08
2023-07-28T04:07:11.530Z,997.05
2023-07-28T04:08:11.572Z,997.09
2023-07-28T04:09:11.572Z,997.11
2023-07-28T04:10:11.621Z,997.12
2023-07-28T04:11:11.605Z,997.15
2023-07-28T04:12:11.626Z,997.15
2023-07-28T04:13:11.651Z,997.19
2023-07-28T04:14:11.671Z,997.21
2023-07-28T04:15:11.690Z,997.23
2023-07-28T04:16:11.769Z,997.25
2023-07-28T04:17:11.725Z,997.26
2023-07-28T04:18:11.758Z,997.26
2023-07-28T04:19:11.787Z,997.29
2023-07-28T04:20:11.788Z,997.33
2023-07-28T04:21:11.817Z,997.27
2023-07-28T04:22:11.823Z,997.28
2023-07-28T04:23:11.896Z,997.24
2023-07-28T04:24:11.867Z,997.30
2023-07-28T04:25:11.879Z,997.29
2023-07-28T04:26:11.901Z,997.25
2023-07-28T04:27:11.924Z,997.27
2023-07-28T04:28:11.999Z,997.26
2023-07-28T04:29:11.963Z,997.27
2023-07-28T04:30:11.981Z,997.23
2023-07-28T04:31:12.041Z,997.21
2023-07-28T04:32:12.019Z,997.19
2023-07-28T04:33:12.042Z,997.16
2023-07-28T04:34:12.065Z,997.21
2023-07-28T04:35:12.086Z,997.15
2023-07-28T04:36:12.102Z,997.17
2023-07-28T04:37:12.123Z,997.17
2023-07-28T04:38:12.140Z,997.17
2023-07-28T04:39:12.161Z,997.16
2023-07-28T04:40:12.188Z,997.17
2023-07-28T04:41:12.199Z,997.19
2023-07-28T04:42:12.223Z,997.16
2023-07-28T04:43:12.238Z,997.15
2023-07-28T04:44:12.257Z,997.12
2023-07-28T04:45:12.284Z,997.11
2023-07-28T04:46:12.350Z,997.14
2023-07-28T04:47:12.318Z,997.10
2023-07-28T04:48:12.377Z,997.10
2023-07-28T04:49:12.358Z,997.12
2023-07-28T04:50:12.377Z,997.11
2023-07-28T04:51:12.396Z,997.08
2023-07-28T04:52:12.424Z,997.16
2023-07-28T04:53:12.437Z,997.07
2023-07-28T04:54:12.456Z,997.14
2023-07-28T04:55:12.476Z,997.16
2023-07-28T04:56:12.502Z,997.11
2023-07-28T04:57:14.445Z,997.17
2023-07-28T04:58:12.534Z,997.19
2023-07-28T04:59:12.553Z,997.16
2023-07-28T05:00:12.579Z,997.10
2023-07-28T05:01:12.683Z,997.13
2023-07-28T05:02:12.620Z,997.09
2023-07-28T05:03:12.637Z,997.18
2023-07-28T05:04:12.697Z,997.20
2023-07-28T05:05:12.725Z,997.19
2023-07-28T05:06:12.770Z,997.17
2023-07-28T05:07:12.782Z,997.13
2023-07-28T05:08:12.768Z,997.17
2023-07-28T05:09:12.768Z,997.12
2023-07-28T05:10:12.893Z,997.11
2023-07-28T05:11:12.792Z,997.21
2023-07-28T05:12:12.813Z,997.23
2023-07-28T05:13:12.830Z,997.26
2023-07-28T05:14:12.852Z,997.34
2023-07-28T05:15:12.870Z,997.36
2023-07-28T05:16:13.001Z,997.29
2023-07-28T05:17:12.914Z,997.32
2023-07-28T05:18:12.934Z,997.37
2023-07-28T05:19:13.003Z,997.32
2023-07-28T05:20:12.974Z,997.35
2023-07-28T05:21:12.992Z,997.28
2023-07-28T05:22:13.018Z,997.29
2023-07-28T05:23:13.035Z,997.31
2023-07-28T05:24:13.066Z,997.30
2023-07-28T05:25:13.097Z,997.40
2023-07-28T05:26:13.101Z,997.41
2023-07-28T05:27:13.120Z,997.47
2023-07-28T05:28:13.161Z,997.38
2023-07-28T05:29:13.163Z,997.43
2023-07-28T05:30:13.175Z,997.44
2023-07-28T05:31:13.247Z,997.41
2023-07-28T05:32:13.253Z,997.47
2023-07-28T05:33:13.257Z,997.41
2023-07-28T05:34:13.264Z,997.44
2023-07-28T05:35:13.313Z,997.47
2023-07-28T05:36:13.320Z,997.46
2023-07-28T05:37:13.317Z,997.49
2023-07-28T05:38:13.347Z,997.50
2023-07-28T05:39:13.365Z,997.49
2023-07-28T05:40:13.379Z,997.48
2023-07-28T05:41:13.399Z,997.49
2023-07-28T05:42:13.445Z,997.42
2023-07-28T05:43:13.444Z,997.45
2023-07-28T05:44:13.460Z,997.46
2023-07-28T05:45:13.478Z,997.48
2023-07-28T05:46:13.518Z,997.50
2023-07-28T05:47:13.520Z,997.52
2023-07-28T05:48:13.544Z,997.54
2023-07-28T05:49:13.558Z,997.47
2023-07-28T05:50:13.582Z,997.53
2023-07-28T05:51:13.601Z,997.51
2023-07-28T05:52:13.636Z,997.48
2023-07-28T05:53:13.643Z,997.53
2023-07-28T05:54:13.670Z,997.52
2023-07-28T05:55:13.720Z,997.49
2023-07-28T05:56:13.702Z,997.54
2023-07-28T05:57:13.730Z,997.50
2023-07-28T05:58:13.752Z,997.52
2023-07-28T05:59:13.769Z,997.49
2023-07-28T06:00:13.785Z,997.52
2023-07-28T06:01:13.858Z,997.52
2023-07-28T06:02:13.826Z,997.54
2023-07-28T06:03:13.957Z,997.49
2023-07-28T06:04:13.868Z,997.51
2023-07-28T06:05:13.886Z,997.53
2023-07-28T06:06:13.905Z,997.56
2023-07-28T06:07:13.928Z,997.56
2023-07-28T06:08:13.963Z,997.65
2023-07-28T06:09:13.968Z,997.62
2023-07-28T06:10:14.007Z,997.68
2023-07-28T06:11:14.010Z,997.66
2023-07-28T06:12:14.030Z,997.66
2023-07-28T06:13:14.052Z,997.70
2023-07-28T06:14:14.077Z,997.70
2023-07-28T06:15:14.090Z,997.69
2023-07-28T06:16:14.143Z,997.75
2023-07-28T06:17:14.144Z,997.78
2023-07-28T06:18:14.155Z,997.83
2023-07-28T06:19:14.176Z,997.84
2023-07-28T06:20:14.193Z,997.85
2023-07-28T06:21:14.215Z,997.82
2023-07-28T06:22:14.235Z,997.90
2023-07-28T06:23:14.257Z,997.90
2023-07-28T06:24:14.278Z,997.89
2023-07-28T06:25:14.295Z,997.90
2023-07-28T06:26:14.323Z,997.96
2023-07-28T06:27:14.334Z,997.94
2023-07-28T06:28:14.540Z,997.99
2023-07-28T06:29:14.447Z,998.04
2023-07-28T06:30:14.410Z,998.13
2023-07-28T06:31:14.442Z,998.15
2023-07-28T06:32:14.436Z,998.11
2023-07-28T06:33:14.458Z,998.10
2023-07-28T06:34:14.481Z,998.17
2023-07-28T06:35:14.507Z,998.20
2023-07-28T06:36:14.523Z,998.19
2023-07-28T06:37:14.543Z,998.20
2023-07-28T06:38:14.558Z,998.16
2023-07-28T06:39:14.581Z,998.16
2023-07-28T06:40:14.596Z,998.16
2023-07-28T06:41:14.621Z,998.15
2023-07-28T06:42:14.668Z,998.15
2023-07-28T06:43:14.671Z,998.19
2023-07-28T06:44:14.688Z,998.25
2023-07-28T06:45:14.704Z,998.27
2023-07-28T06:46:14.743Z,998.29
2023-07-28T06:47:14.747Z,998.25
2023-07-28T06:48:14.766Z,998.24
2023-07-28T06:49:14.784Z,998.23
2023-07-28T06:50:14.816Z,998.21
2023-07-28T06:51:14.833Z,998.23
2023-07-28T06:52:14.863Z,998.18
2023-07-28T06:53:14.869Z,998.20
2023-07-28T06:54:14.901Z,998.24
2023-07-28T06:55:14.918Z,998.24
2023-07-28T06:56:14.937Z,998.31
2023-07-28T06:57:14.952Z,998.26
2023-07-28T06:58:14.981Z,998.29
2023-07-28T06:59:18.578Z,998.30
2023-07-28T07:00:15.014Z,998.31
2023-07-28T07:01:15.091Z,998.27
2023-07-28T07:02:15.061Z,998.30
2023-07-28T07:03:15.087Z,998.25
2023-07-28T07:04:15.106Z,998.27
2023-07-28T07:05:15.150Z,998.37
2023-07-28T07:06:15.146Z,998.34
2023-07-28T07:07:15.165Z,998.35
2023-07-28T07:08:15.186Z,998.37
2023-07-28T07:09:15.218Z,998.31
2023-07-28T07:10:15.230Z,998.38
2023-07-28T07:11:15.255Z,998.37
2023-07-28T07:12:15.278Z,998.30
2023-07-28T07:13:15.292Z,998.35
2023-07-28T07:14:15.315Z,998.28
2023-07-28T07:15:15.338Z,998.32
2023-07-28T07:16:22.994Z,998.34
2023-07-28T07:17:15.380Z,998.37
2023-07-28T07:18:15.403Z,998.43
2023-07-28T07:19:15.424Z,998.45
2023-07-28T07:20:15.444Z,998.46
2023-07-28T07:21:15.469Z,998.51
2023-07-28T07:22:15.490Z,998.58
2023-07-28T07:23:15.509Z,998.58
2023-07-28T07:24:15.538Z,998.57
2023-07-28T07:25:15.554Z,998.72
2023-07-28T07:26:15.569Z,998.72
2023-07-28T07:27:15.597Z,998.61
2023-07-28T07:28:15.662Z,998.53
2023-07-28T07:29:15.640Z,998.44
2023-07-28T07:30:15.670Z,998.45
2023-07-28T07:31:15.742Z,998.51
2023-07-28T07:32:15.743Z,998.50
2023-07-28T07:33:15.730Z,998.57
2023-07-28T07:34:15.760Z,998.59
2023-07-28T07:35:15.776Z,998.63
2023-07-28T07:36:15.811Z,998.62
2023-07-28T07:37:15.822Z,998.66
2023-07-28T07:38:15.888Z,998.73
2023-07-28T07:39:15.872Z,998.76
2023-07-28T07:40:15.967Z,998.74
2023-07-28T07:41:15.920Z,998.66
2023-07-28T07:42:15.966Z,998.66
2023-07-28T07:43:15.976Z,998.63
2023-07-28T07:44:15.997Z,998.70
2023-07-28T07:45:16.020Z,998.66
2023-07-28T07:46:16.059Z,998.55
2023-07-28T07:47:16.164Z,998.55
2023-07-28T07:48:16.091Z,998.64
2023-07-28T07:49:16.115Z,998.66
2023-07-28T07:50:16.140Z,998.78
2023-07-28T07:51:16.177Z,998.80
2023-07-28T07:52:16.188Z,998.90
2023-07-28T07:53:16.211Z,998.90
2023-07-28T07:54:16.237Z,998.86
2023-07-28T07:55:16.263Z,998.89
2023-07-28T07:56:16.299Z,998.92
2023-07-28T07:57:16.338Z,998.81
2023-07-28T07:58:16.345Z,998.83
2023-07-28T07:59:16.423Z,998.90
2023-07-28T08:00:16.417Z,998.89
2023-07-28T08:01:16.472Z,998.84
2023-07-28T08:02:16.447Z,998.83
2023-07-28T08:03:16.498Z,998.76
2023-07-28T08:04:16.550Z,998.78
2023-07-28T08:05:16.506Z,998.73
2023-07-28T08:06:16.559Z,998.91
2023-07-28T08:07:16.563Z,998.91
2023-07-28T08:08:16.583Z,998.84
2023-07-28T08:09:16.611Z,998.74
2023-07-28T08:10:16.649Z,998.78
2023-07-28T08:11:16.680Z,998.79
2023-07-28T08:12:16.689Z,998.81
2023-07-28T08:13:16.713Z,998.73
2023-07-28T08:14:16.740Z,999.03
2023-07-28T08:15:16.801Z,998.99
2023-07-28T08:16:16.838Z,998.93
2023-07-28T08:17:16.823Z,998.97
2023-07-28T08:18:16.859Z,998.84
2023-07-28T08:19:16.870Z,998.80
2023-07-28T08:20:16.903Z,998.92
2023-07-28T08:21:16.925Z,998.85
2023-07-28T08:22:16.971Z,998.93
2023-07-28T08:23:16.985Z,998.92
2023-07-28T08:24:17.028Z,998.90
2023-07-28T08:25:17.031Z,998.93
2023-07-28T08:26:17.060Z,998.94
2023-07-28T08:27:17.112Z,998.94
2023-07-28T08:28:17.181Z,998.88
2023-07-28T08:29:17.138Z,999.00
2023-07-28T08:30:17.181Z,998.88
2023-07-28T08:31:17.236Z,998.79
2023-07-28T08:32:17.213Z,998.83
2023-07-28T08:33:17.260Z,998.96
2023-07-28T08:34:17.266Z,999.07
2023-07-28T08:35:17.291Z,999.19
2023-07-28T08:36:17.369Z,999.18
2023-07-28T08:37:17.354Z,999.20
2023-07-28T08:38:17.366Z,999.17
2023-07-28T08:39:17.395Z,999.11
2023-07-28T08:40:17.416Z,999.16
2023-07-28T08:41:17.447Z,999.24
2023-07-28T08:42:17.462Z,999.05
2023-07-28T08:43:17.493Z,998.95
2023-07-28T08:44:17.515Z,998.86
2023-07-28T08:45:17.541Z,998.84
2023-07-28T08:46:17.599Z,998.88
2023-07-28T08:47:17.585Z,998.99
2023-07-28T08:48:17.710Z,998.99
2023-07-28T08:49:17.632Z,998.99
2023-07-28T08:50:17.654Z,999.02
2023-07-28T08:51:17.684Z,999.08
2023-07-28T08:52:17.704Z,999.17
2023-07-28T08:53:17.732Z,999.35
2023-07-28T08:54:17.756Z,999.38
2023-07-28T08:55:17.779Z,999.23
2023-07-28T08:56:17.805Z,999.24
2023-07-28T08:57:17.831Z,999.30
2023-07-28T08:58:17.857Z,999.33
2023-07-28T08:59:17.878Z,999.26
2023-07-28T09:00:17.992Z,999.31
2023-07-28T09:01:18.019Z,999.31
2023-07-28T09:02:18.000Z,999.37
2023-07-28T09:03:18.019Z,999.43
2023-07-28T09:04:17.996Z,999.45
2023-07-28T09:05:18.043Z,999.41
2023-07-28T09:06:18.043Z,999.44
2023-07-28T09:07:18.066Z,999.49
2023-07-28T09:08:18.112Z,999.44
2023-07-28T09:09:18.118Z,999.51
2023-07-28T09:10:18.203Z,999.40
2023-07-28T09:11:18.793Z,999.29
2023-07-28T09:12:18.202Z,999.19
2023-07-28T09:13:18.312Z,999.28
2023-07-28T09:14:18.250Z,999.26
2023-07-28T09:15:18.271Z,999.52
2023-07-28T09:16:18.382Z,999.50
2023-07-28T09:17:18.412Z,999.42
2023-07-28T09:18:18.378Z,999.41
2023-07-28T09:19:18.375Z,999.25
2023-07-28T09:20:18.480Z,999.28
2023-07-28T09:21:18.426Z,999.25
2023-07-28T09:22:18.455Z,999.22
2023-07-28T09:23:18.473Z,999.33
2023-07-28T09:24:18.499Z,999.40
2023-07-28T09:25:18.537Z,999.53
2023-07-28T09:26:18.546Z,999.35
2023-07-28T09:27:18.641Z,999.45
2023-07-28T09:28:18.686Z,999.42
2023-07-28T09:29:18.719Z,999.54
2023-07-28T09:30:18.644Z,999.66
2023-07-28T09:31:18.757Z,999.47
2023-07-28T09:32:18.692Z,999.42
2023-07-28T09:33:18.716Z,999.51
2023-07-28T09:34:18.742Z,999.65
2023-07-28T09:35:18.768Z,999.72
2023-07-28T09:36:18.842Z,999.61
2023-07-28T09:37:18.848Z,999.51
2023-07-28T09:38:18.839Z,999.66
2023-07-28T09:39:18.865Z,999.71
2023-07-28T09:40:18.897Z,999.70
2023-07-28T09:41:18.936Z,999.72
2023-07-28T09:42:18.938Z,999.67
2023-07-28T09:43:18.962Z,999.72
2023-07-28T09:44:18.993Z,999.75
2023-07-28T09:45:31.064Z,999.78
2023-07-28T09:46:19.077Z,999.76
2023-07-28T09:47:19.136Z,999.78
2023-07-28T09:48:19.092Z,999.71
2023-07-28T09:49:19.125Z,999.83
2023-07-28T09:50:19.140Z,999.79
2023-07-28T09:51:19.165Z,999.66
2023-07-28T09:52:19.201Z,999.75
2023-07-28T09:53:19.236Z,999.74
2023-07-28T09:54:19.242Z,999.81
2023-07-28T09:55:19.267Z,999.72
2023-07-28T09:56:19.299Z,999.69
2023-07-28T09:57:19.315Z,999.76
2023-07-28T09:58:19.342Z,999.50
2023-07-28T09:59:19.370Z,999.53
2023-07-28T10:00:19.387Z,999.51
2023-07-28T10:01:19.465Z,999.58
2023-07-28T10:02:19.494Z,999.67
2023-07-28T10:03:19.552Z,999.61
2023-07-28T10:04:19.492Z,999.53
2023-07-28T10:05:19.525Z,999.44
2023-07-28T10:06:19.546Z,999.44
2023-07-28T10:07:19.571Z,999.51
2023-07-28T10:08:19.599Z,999.59
2023-07-28T10:09:19.621Z,999.54
2023-07-28T10:10:19.653Z,999.48
2023-07-28T10:11:19.686Z,999.67
2023-07-28T10:12:19.715Z,999.65
2023-07-28T10:13:19.728Z,999.59
2023-07-28T10:14:19.781Z,999.65
2023-07-28T10:15:19.803Z,999.70
2023-07-28T10:16:19.875Z,999.60
2023-07-28T10:17:19.852Z,999.92
2023-07-28T10:18:19.867Z,999.86
2023-07-28T10:19:19.900Z,999.78
2023-07-28T10:20:19.936Z,999.78
2023-07-28T10:21:19.953Z,999.80
2023-07-28T10:22:20.003Z,999.79
2023-07-28T10:23:20.018Z,999.69
2023-07-28T10:24:20.052Z,999.54
2023-07-28T10:25:21.136Z,999.73
2023-07-28T10:26:20.106Z,999.62
2023-07-28T10:27:20.136Z,999.71
2023-07-28T10:28:20.172Z,999.81
2023-07-28T10:29:20.192Z,1000.04
2023-07-28T10:30:20.210Z,1000.13
2023-07-28T10:31:20.247Z,1000.15
2023-07-28T10:32:20.277Z,1000.10
2023-07-28T10:33:20.288Z,1000.11
2023-07-28T10:34:20.313Z,1000.12
2023-07-28T10:35:20.342Z,1000.04
2023-07-28T10:36:20.367Z,1000.04
2023-07-28T10:37:20.392Z,1000.06
2023-07-28T10:38:20.419Z,999.96
2023-07-28T10:39:20.443Z,1000.02
2023-07-28T10:40:20.473Z,999.95
2023-07-28T10:41:20.500Z,1000.01
2023-07-28T10:42:20.525Z,1000.11
2023-07-28T10:43:20.550Z,1000.10
2023-07-28T10:44:20.575Z,1000.06
2023-07-28T10:45:20.600Z,1000.05
2023-07-28T10:46:20.646Z,1000.02
2023-07-28T10:47:20.652Z,999.94
2023-07-28T10:48:20.695Z,999.82
2023-07-28T10:49:20.718Z,999.74
2023-07-28T10:50:20.739Z,999.69
2023-07-28T10:51:20.770Z,999.73
2023-07-28T10:52:20.792Z,999.88
2023-07-28T10:53:20.895Z,999.93
2023-07-28T10:54:20.861Z,999.90
2023-07-28T10:55:20.878Z,999.88
2023-07-28T10:56:20.906Z,999.82
2023-07-28T10:57:20.935Z,999.88
2023-07-28T10:58:20.982Z,1000.05
2023-07-28T10:59:20.998Z,1000.05
2023-07-28T11:00:21.026Z,999.94
2023-07-28T11:01:21.074Z,1000.00
2023-07-28T11:02:21.127Z,999.98
2023-07-28T11:03:21.173Z,1000.06
2023-07-28T11:04:21.166Z,999.95
2023-07-28T11:05:21.179Z,1000.10
2023-07-28T11:06:21.202Z,1000.11
2023-07-28T11:07:21.235Z,1000.11
2023-07-28T11:08:21.276Z,1000.13
2023-07-28T11:09:21.316Z,1000.11
2023-07-28T11:10:21.322Z,1000.15
2023-07-28T11:11:21.354Z,1000.21
2023-07-28T11:12:21.411Z,1000.22
2023-07-28T11:14:21.443Z,1000.20
2023-07-28T11:15:21.487Z,1000.14
2023-07-28T11:16:21.537Z,999.93
2023-07-28T11:17:21.545Z,999.85
2023-07-28T11:18:21.557Z,1000.01
2023-07-28T11:19:21.585Z,1000.12
2023-07-28T11:20:21.623Z,999.96
2023-07-28T11:21:21.639Z,999.96
2023-07-28T11:22:21.669Z,999.88
2023-07-28T11:23:21.697Z,999.85
2023-07-28T11:24:21.726Z,999.72
2023-07-28T11:25:21.754Z,999.78
2023-07-28T11:26:21.782Z,999.70
2023-07-28T11:27:21.814Z,999.85
2023-07-28T11:28:21.855Z,999.96
2023-07-28T11:29:21.864Z,1000.02
2023-07-28T11:30:21.892Z,1000.07
2023-07-28T11:31:21.941Z,1000.08
2023-07-28T11:32:21.944Z,1000.20
2023-07-28T11:33:21.971Z,1000.19
2023-07-28T11:34:22.044Z,1000.19
2023-07-28T11:35:22.027Z,1000.29
2023-07-28T11:36:22.051Z,1000.26
2023-07-28T11:37:22.078Z,1000.26
2023-07-28T11:38:22.103Z,1000.47
2023-07-28T11:39:22.128Z,1000.34
2023-07-28T11:40:22.157Z,1000.47
2023-07-28T11:41:22.181Z,1000.46
2023-07-28T11:42:22.219Z,1000.26
2023-07-28T11:43:22.235Z,1000.25
2023-07-28T11:44:22.259Z,1000.24
2023-07-28T11:45:22.291Z,1000.34
2023-07-28T11:46:22.355Z,1000.44
2023-07-28T11:47:22.361Z,1000.41
2023-07-28T11:48:22.386Z,1000.24
2023-07-28T11:49:22.395Z,1000.40
2023-07-28T11:50:22.423Z,1000.21
2023-07-28T11:51:22.453Z,1000.21
2023-07-28T11:52:23.728Z,1000.24
2023-07-28T11:53:22.509Z,1000.24
2023-07-28T11:54:22.540Z,1000.40
2023-07-28T11:55:22.564Z,1000.38
2023-07-28T11:56:22.594Z,1000.41
2023-07-28T11:57:22.670Z,1000.20
2023-07-28T11:58:24.274Z,1000.22
2023-07-28T11:59:22.684Z,1000.54
2023-07-28T12:00:22.715Z,1000.38
2023-07-28T12:01:22.773Z,1000.36
2023-07-28T12:02:24.484Z,1000.38
2023-07-28T12:03:22.868Z,1000.34
2023-07-28T12:05:22.950Z,1000.34
2023-07-28T12:06:28.875Z,1000.38
2023-07-28T12:07:22.973Z,1000.34
2023-07-28T12:08:22.938Z,1000.35
2023-07-28T12:09:22.976Z,1000.39
2023-07-28T12:12:25.338Z,1000.45
2023-07-28T12:19:23.300Z,1000.70
2023-07-28T12:20:23.303Z,1000.64
2023-07-28T12:21:23.288Z,1000.55
2023-07-28T12:22:23.313Z,1000.60
2023-07-28T12:24:23.365Z,1000.52
2023-07-28T12:25:23.392Z,1000.45
2023-07-28T12:26:23.425Z,1000.51
2023-07-28T12:27:23.780Z,1000.54
2023-07-28T12:28:23.515Z,1000.51
2023-07-28T12:29:30.464Z,1000.50
2023-07-28T12:30:23.570Z,1000.45
2023-07-28T12:31:23.553Z,1000.50
2023-07-28T12:32:35.097Z,1000.63
2023-07-28T12:33:23.718Z,1000.62
2023-07-28T12:34:26.002Z,1000.72
2023-07-28T12:35:48.967Z,1000.89
2023-07-28T12:36:25.610Z,1000.93